Time;durP1;ratioP1;P1;durP2;ratioP2;P2;SDS_P1;SDS_P2;PMS_P1;PMS_P2;Temp;Humidity;BMP_temperature;BMP_pressure;BME280_temperature;BME280_humidity;BME280_pressure;Samples;Min_cycle;Max_cycle;Signal;HPM_P1;HPM_P2
2023/03/17 00:00:19;;;;;;;12.15;6.10;;;7.20;99.90;;;;;;6249645;22;20102;-82
2023/03/17 00:02:47;;;;;;;9.35;5.65;;;7.20;99.90;;;;;;6250003;22;20015;-81
2023/03/17 00:05:22;;;;;;;10.60;5.78;;;7.20;99.90;;;;;;6249993;22;20020;-81
2023/03/17 00:07:49;;;;;;;9.18;5.57;;;7.20;99.90;;;;;;6249874;22;20018;-81
2023/03/17 00:10:21;;;;;;;8.60;6.38;;;7.20;99.90;;;;;;6249770;22;20015;-81
2023/03/17 00:12:49;;;;;;;8.53;5.13;;;7.30;99.90;;;;;;6249997;22;20031;-81
2023/03/17 00:15:16;;;;;;;11.63;5.57;;;7.30;99.90;;;;;;6249926;22;20019;-81
2023/03/17 00:17:43;;;;;;;8.85;5.40;;;7.30;99.90;;;;;;6249880;22;20104;-81
2023/03/17 00:20:13;;;;;;;8.98;6.50;;;7.30;99.90;;;;;;6249896;22;20444;-81
2023/03/17 00:22:39;;;;;;;8.15;5.63;;;7.30;99.90;;;;;;6249865;22;20054;-81
2023/03/17 00:25:26;;;;;;;8.50;5.28;;;7.30;99.90;;;;;;6250364;22;20015;-81
2023/03/17 00:27:54;;;;;;;8.35;5.32;;;7.30;99.90;;;;;;6249747;22;20062;-81
2023/03/17 00:30:20;;;;;;;9.45;5.30;;;7.30;99.90;;;;;;6249823;22;20016;-81
2023/03/17 00:32:47;;;;;;;7.68;4.80;;;7.30;99.90;;;;;;6249778;22;20019;-81
2023/03/17 00:35:16;;;;;;;10.05;5.40;;;7.40;99.90;;;;;;6249925;22;20016;-81
2023/03/17 00:37:42;;;;;;;9.18;5.93;;;7.30;99.90;;;;;;6249748;22;20016;-81
2023/03/17 00:40:18;;;;;;;13.38;6.13;;;7.30;99.90;;;;;;6249757;22;20058;-81
2023/03/17 00:42:44;;;;;;;10.52;5.78;;;7.40;99.90;;;;;;6249973;22;20012;-81
2023/03/17 00:45:10;;;;;;;8.43;5.53;;;7.40;99.90;;;;;;6250155;22;20431;-81
2023/03/17 00:47:37;;;;;;;7.68;4.60;;;7.40;99.90;;;;;;6249861;22;20457;-81
2023/03/17 00:50:04;;;;;;;10.02;5.90;;;7.40;99.90;;;;;;6249867;22;20011;-81
2023/03/17 00:52:30;;;;;;;9.35;5.35;;;7.40;99.90;;;;;;6249727;22;20441;-81
2023/03/17 00:54:55;;;;;;;8.88;5.70;;;7.40;99.90;;;;;;6249719;22;20505;-81
2023/03/17 00:57:21;;;;;;;8.85;5.30;;;7.40;99.90;;;;;;6249752;22;20020;-81
2023/03/17 00:59:47;;;;;;;7.43;5.10;;;7.40;99.90;;;;;;6248665;22;20030;-81
2023/03/17 01:02:14;;;;;;;8.18;5.35;;;7.40;99.90;;;;;;6249554;22;20412;-81
2023/03/17 01:04:43;;;;;;;8.57;5.22;;;7.40;99.90;;;;;;6249594;22;20347;-81
2023/03/17 01:07:10;;;;;;;9.45;5.90;;;7.40;99.90;;;;;;6251864;22;20045;-81
2023/03/17 01:09:37;;;;;;;7.90;4.65;;;7.40;99.90;;;;;;6251605;22;20019;-81
2023/03/17 01:12:02;;;;;;;9.93;5.20;;;7.40;99.90;;;;;;6251446;22;20012;-81
2023/03/17 01:14:28;;;;;;;7.88;5.40;;;7.50;99.90;;;;;;6251443;22;20347;-81
2023/03/17 01:16:54;;;;;;;9.63;5.35;;;7.50;99.90;;;;;;6251421;22;20073;-81
2023/03/17 01:19:20;;;;;;;9.18;4.85;;;7.50;99.90;;;;;;6251263;22;20020;-81
2023/03/17 01:21:46;;;;;;;10.13;5.18;;;7.50;99.90;;;;;;6251082;22;20440;-81
2023/03/17 01:24:13;;;;;;;7.68;4.63;;;7.50;99.90;;;;;;6251359;22;20022;-81
2023/03/17 01:26:39;;;;;;;8.63;4.80;;;7.50;99.90;;;;;;6251407;22;20327;-81
2023/03/17 01:29:06;;;;;;;8.68;5.25;;;7.40;99.90;;;;;;6251262;22;20012;-81
2023/03/17 01:31:33;;;;;;;8.02;5.15;;;7.40;99.90;;;;;;6278705;22;20012;-81
2023/03/17 01:33:58;;;;;;;9.50;5.10;;;7.50;99.90;;;;;;6251305;22;20091;-81
2023/03/17 01:36:24;;;;;;;9.25;4.95;;;7.40;99.90;;;;;;6278358;22;20058;-81
2023/03/17 01:38:50;;;;;;;8.65;5.70;;;7.50;99.90;;;;;;6251314;22;20012;-81
2023/03/17 01:41:22;;;;;;;8.10;4.53;;;7.50;99.90;;;;;;6251026;22;20015;-81
2023/03/17 01:43:47;;;;;;;7.63;4.80;;;7.50;99.90;;;;;;6251256;22;20023;-81
2023/03/17 01:46:21;;;;;;;7.75;4.60;;;7.50;99.90;;;;;;6252017;22;20008;-81
2023/03/17 01:49:11;;;;;;;8.10;4.50;;;7.50;99.90;;;;;;6278328;22;20019;-81
2023/03/17 01:51:52;;;;;;;8.13;4.72;;;7.50;99.90;;;;;;6250727;22;20050;-81
2023/03/17 01:54:25;;;;;;;8.80;4.95;;;7.40;99.90;;;;;;6251637;22;20027;-81
2023/03/17 01:56:55;;;;;;;9.43;5.22;;;7.50;99.90;;;;;;6251544;22;20328;-81
2023/03/17 01:59:29;;;;;;;8.13;4.72;;;7.40;99.90;;;;;;6277955;22;20026;-81
2023/03/17 02:02:01;;;;;;;9.48;4.93;;;7.40;99.90;;;;;;6250890;22;20020;-81
2023/03/17 02:04:27;;;;;;;6.60;4.70;;;7.40;99.90;;;;;;6278210;22;20023;-81
2023/03/17 02:06:54;;;;;;;7.72;4.80;;;7.40;99.90;;;;;;6278423;22;20016;-81
2023/03/17 02:09:20;;;;;;;7.18;4.43;;;7.40;99.90;;;;;;6278085;22;20508;-81
2023/03/17 02:11:45;;;;;;;7.32;4.45;;;7.50;99.90;;;;;;6251017;22;20043;-81
2023/03/17 02:14:11;;;;;;;7.25;4.63;;;7.40;99.90;;;;;;6250988;22;20024;-81
2023/03/17 02:16:37;;;;;;;8.65;4.65;;;7.50;99.90;;;;;;6250718;22;20351;-81
2023/03/17 02:19:02;;;;;;;8.13;4.97;;;7.50;99.90;;;;;;6250705;22;20074;-81
2023/03/17 02:21:48;;;;;;;8.95;4.95;;;7.50;99.90;;;;;;6250827;22;20444;-81
2023/03/17 02:24:46;;;;;;;8.80;4.93;;;7.40;99.90;;;;;;6250772;22;20015;-81
2023/03/17 02:27:16;;;;;;;8.73;5.20;;;7.40;99.90;;;;;;6240140;22;20016;-81
2023/03/17 02:29:45;;;;;;;7.63;4.57;;;7.40;99.90;;;;;;6278264;22;20019;-81
2023/03/17 02:32:12;;;;;;;8.45;4.65;;;7.40;99.90;;;;;;6250765;22;20016;-81
2023/03/17 02:34:38;;;;;;;8.05;4.65;;;7.40;99.90;;;;;;6277846;22;20065;-81
2023/03/17 02:37:05;;;;;;;7.43;4.40;;;7.40;99.90;;;;;;6278078;22;20082;-80
2023/03/17 02:39:31;;;;;;;9.10;4.88;;;7.40;99.90;;;;;;6278050;22;20090;-81
2023/03/17 02:41:57;;;;;;;8.70;4.82;;;7.40;99.90;;;;;;6250582;22;20390;-81
2023/03/17 02:44:22;;;;;;;6.63;4.63;;;7.30;99.90;;;;;;6277986;22;20018;-81
2023/03/17 02:46:48;;;;;;;6.43;4.57;;;7.40;99.90;;;;;;6250565;22;20416;-81
2023/03/17 02:49:14;;;;;;;8.70;4.40;;;7.30;99.90;;;;;;6250502;22;20020;-81
2023/03/17 02:51:40;;;;;;;9.05;4.57;;;7.30;99.90;;;;;;6250514;22;20054;-81
2023/03/17 02:54:05;;;;;;;7.72;4.25;;;7.30;99.90;;;;;;6250412;22;20016;-81
2023/03/17 02:56:31;;;;;;;7.13;4.55;;;7.30;99.90;;;;;;6250351;22;20440;-81
2023/03/17 02:58:57;;;;;;;9.30;4.63;;;7.30;99.90;;;;;;6250434;22;20098;-81
2023/03/17 03:01:22;;;;;;;7.55;4.38;;;7.30;99.90;;;;;;6250164;22;20020;-81
2023/03/17 03:03:49;;;;;;;8.63;5.00;;;7.30;99.90;;;;;;6250273;22;20018;-81
2023/03/17 03:06:15;;;;;;;8.48;4.35;;;7.30;99.90;;;;;;6250441;22;20081;-81
2023/03/17 03:08:41;;;;;;;7.15;4.63;;;7.30;99.90;;;;;;6277798;22;20061;-81
2023/03/17 03:11:07;;;;;;;6.47;4.38;;;7.20;99.90;;;;;;6250381;22;20085;-81
2023/03/17 03:13:32;;;;;;;9.07;5.18;;;7.20;99.90;;;;;;6277794;22;20092;-81
2023/03/17 03:15:58;;;;;;;8.93;4.45;;;7.30;99.90;;;;;;6250399;22;20410;-81
2023/03/17 03:18:24;;;;;;;7.45;4.35;;;7.30;99.90;;;;;;6250283;22;20017;-81
2023/03/17 03:20:50;;;;;;;8.00;4.75;;;7.30;99.90;;;;;;6277878;22;20026;-81
2023/03/17 03:23:16;;;;;;;10.02;4.70;;;7.30;99.90;;;;;;6250319;22;20055;-81
2023/03/17 03:25:42;;;;;;;8.45;4.38;;;7.30;99.90;;;;;;6250312;22;20039;-81
2023/03/17 03:28:08;;;;;;;9.18;4.65;;;7.30;99.90;;;;;;6250087;22;20031;-81
2023/03/17 03:30:35;;;;;;;7.88;4.82;;;7.20;99.90;;;;;;6249844;22;20110;-81
2023/03/17 03:33:01;;;;;;;8.75;4.80;;;7.20;99.90;;;;;;6250286;22;20077;-81
2023/03/17 03:35:28;;;;;;;7.68;5.03;;;7.20;99.90;;;;;;6250138;22;20082;-81
2023/03/17 03:37:55;;;;;;;6.80;4.78;;;7.20;99.90;;;;;;6250125;22;20051;-81
2023/03/17 03:40:22;;;;;;;6.32;4.22;;;7.20;99.90;;;;;;6277449;22;20099;-81
2023/03/17 03:42:48;;;;;;;10.30;4.88;;;7.20;99.90;;;;;;6249966;22;20102;-81
2023/03/17 03:45:14;;;;;;;7.68;4.70;;;7.20;99.90;;;;;;6250165;22;20016;-81
2023/03/17 03:47:40;;;;;;;10.73;5.35;;;7.20;99.90;;;;;;6250009;22;20343;-81
2023/03/17 03:50:07;;;;;;;8.20;4.88;;;7.20;99.90;;;;;;6277195;22;20019;-81
2023/03/17 03:52:33;;;;;;;8.65;4.97;;;7.20;99.90;;;;;;6277668;22;20016;-81
2023/03/17 03:54:59;;;;;;;8.63;4.72;;;7.20;99.90;;;;;;6277440;22;20024;-81
2023/03/17 03:57:25;;;;;;;6.80;4.63;;;7.20;99.90;;;;;;6250361;22;20020;-81
2023/03/17 03:59:51;;;;;;;7.80;4.60;;;7.20;99.90;;;;;;6276781;22;20082;-82
2023/03/17 04:02:17;;;;;;;9.98;4.25;;;7.20;99.90;;;;;;6249772;22;20095;-81
2023/03/17 04:04:43;;;;;;;9.85;5.40;;;7.20;99.90;;;;;;6249946;22;20344;-81
2023/03/17 04:07:09;;;;;;;8.82;4.75;;;7.30;99.90;;;;;;6249936;22;20015;-81
2023/03/17 04:09:35;;;;;;;7.75;4.82;;;7.20;99.90;;;;;;6276898;22;20023;-81
2023/03/17 04:12:01;;;;;;;7.35;4.43;;;7.20;99.90;;;;;;6249826;22;20061;-81
2023/03/17 04:14:27;;;;;;;6.70;4.30;;;7.20;99.90;;;;;;6277268;22;20011;-81
2023/03/17 04:16:53;;;;;;;7.75;4.25;;;7.20;99.90;;;;;;6249833;22;20405;-81
2023/03/17 04:19:20;;;;;;;7.80;4.50;;;7.20;99.90;;;;;;6249809;22;20012;-81
2023/03/17 04:21:46;;;;;;;7.25;4.88;;;7.20;99.90;;;;;;6249759;22;20440;-81
2023/03/17 04:24:13;;;;;;;7.15;4.78;;;7.10;99.90;;;;;;6249876;22;20012;-81
2023/03/17 04:26:40;;;;;;;8.05;5.38;;;7.10;99.90;;;;;;6249788;22;20137;-81
2023/03/17 04:29:07;;;;;;;12.18;6.03;;;7.10;99.90;;;;;;6277339;22;20008;-81
2023/03/17 04:31:34;;;;;;;9.13;5.07;;;7.00;99.90;;;;;;6249822;22;20020;-81
2023/03/17 04:34:01;;;;;;;8.90;4.82;;;7.00;99.90;;;;;;6277212;22;20008;-81
2023/03/17 04:36:26;;;;;;;7.45;4.80;;;7.00;99.90;;;;;;6249824;22;20099;-81
2023/03/17 04:38:53;;;;;;;8.75;4.93;;;7.00;99.90;;;;;;6249714;22;20047;-81
2023/03/17 04:41:21;;;;;;;9.80;5.15;;;7.00;99.90;;;;;;6250954;22;20023;-81
2023/03/17 04:43:47;;;;;;;8.10;4.72;;;7.00;99.90;;;;;;6251712;22;20020;-81
2023/03/17 04:46:13;;;;;;;9.60;4.63;;;7.00;99.90;;;;;;6251791;22;20022;-81
2023/03/17 04:48:39;;;;;;;7.45;4.78;;;7.00;99.90;;;;;;6251671;22;20073;-81
2023/03/17 04:51:05;;;;;;;8.10;4.68;;;7.00;99.90;;;;;;6251712;22;20022;-81
2023/03/17 04:53:31;;;;;;;8.73;4.55;;;7.00;99.90;;;;;;6251627;22;20348;-81
2023/03/17 04:55:57;;;;;;;9.30;4.72;;;7.00;99.90;;;;;;6251682;22;20016;-81
2023/03/17 04:58:23;;;;;;;9.02;4.68;;;7.00;99.90;;;;;;6278744;22;20022;-81
2023/03/17 05:00:50;;;;;;;7.15;4.93;;;7.00;99.90;;;;;;6278326;22;20328;-81
2023/03/17 05:03:16;;;;;;;7.88;4.97;;;7.00;99.90;;;;;;6251476;22;20030;-81
2023/03/17 05:05:42;;;;;;;8.70;4.55;;;6.90;99.90;;;;;;6251692;22;20019;-81
2023/03/17 05:08:07;;;;;;;7.85;4.30;;;6.90;99.90;;;;;;6251563;22;20023;-81
2023/03/17 05:10:33;;;;;;;7.78;4.70;;;6.90;99.90;;;;;;6278959;22;20015;-81
2023/03/17 05:12:59;;;;;;;8.75;4.95;;;7.00;99.90;;;;;;6251525;22;20026;-81
2023/03/17 05:15:25;;;;;;;8.23;4.68;;;6.90;99.90;;;;;;6278488;22;20018;-81
2023/03/17 05:17:50;;;;;;;7.80;4.95;;;6.90;99.90;;;;;;6251499;22;20020;-81
2023/03/17 05:20:16;;;;;;;7.57;4.68;;;6.90;99.90;;;;;;6251454;22;20034;-81
2023/03/17 05:22:42;;;;;;;7.13;4.35;;;6.90;99.90;;;;;;6251429;22;20022;-81
2023/03/17 05:25:07;;;;;;;8.23;4.68;;;6.90;99.90;;;;;;6251430;22;20016;-81
2023/03/17 05:27:33;;;;;;;7.20;4.55;;;7.00;99.90;;;;;;6278472;22;20015;-81
2023/03/17 05:29:59;;;;;;;7.88;5.00;;;7.00;99.90;;;;;;6252345;22;20450;-81
2023/03/17 05:32:25;;;;;;;9.45;4.82;;;6.90;99.90;;;;;;6251344;22;20011;-81
2023/03/17 05:34:50;;;;;;;8.15;5.07;;;6.90;99.90;;;;;;6251340;22;20016;-81
2023/03/17 05:37:17;;;;;;;7.57;4.70;;;6.90;99.90;;;;;;6278438;22;20008;-81
2023/03/17 05:39:42;;;;;;;8.18;4.80;;;6.90;99.90;;;;;;6251293;22;20019;-81
2023/03/17 05:42:08;;;;;;;8.13;4.88;;;6.90;99.90;;;;;;6278463;22;20015;-81
2023/03/17 05:44:34;;;;;;;8.18;4.63;;;6.90;99.90;;;;;;6251245;22;20387;-81
2023/03/17 05:47:00;;;;;;;8.80;4.90;;;6.90;99.90;;;;;;6251176;22;20023;-81
2023/03/17 05:49:27;;;;;;;8.32;5.22;;;6.90;99.90;;;;;;6251877;22;20023;-81
2023/03/17 05:51:54;;;;;;;7.93;4.25;;;6.90;99.90;;;;;;6251357;22;20024;-81
2023/03/17 05:54:21;;;;;;;8.38;4.75;;;6.90;99.90;;;;;;6250954;22;20078;-81
2023/03/17 05:56:47;;;;;;;9.43;4.57;;;7.00;99.90;;;;;;6251046;22;20047;-81
2023/03/17 05:59:15;;;;;;;9.18;4.88;;;7.00;99.90;;;;;;6277985;22;20328;-81
2023/03/17 06:01:44;;;;;;;6.53;4.32;;;6.90;99.90;;;;;;6276934;22;20016;-81
2023/03/17 06:04:12;;;;;;;8.20;4.47;;;7.00;99.90;;;;;;6277834;22;20027;-81
2023/03/17 06:06:38;;;;;;;8.65;4.93;;;6.90;99.90;;;;;;6278364;22;20016;-81
2023/03/17 06:09:04;;;;;;;7.78;4.00;;;7.00;99.90;;;;;;6251001;22;20043;-81
2023/03/17 06:11:30;;;;;;;7.50;4.28;;;7.00;99.90;;;;;;6250885;22;20015;-81
2023/03/17 06:13:56;;;;;;;8.25;4.75;;;7.00;99.90;;;;;;6250915;22;20020;-81
2023/03/17 06:16:22;;;;;;;7.00;4.57;;;6.90;99.90;;;;;;6277974;22;20019;-81
2023/03/17 06:18:48;;;;;;;6.78;4.20;;;7.00;99.90;;;;;;6250795;22;20011;-81
2023/03/17 06:21:14;;;;;;;7.82;4.75;;;7.00;99.90;;;;;;6250678;22;20022;-81
2023/03/17 06:23:40;;;;;;;9.45;4.97;;;7.00;99.90;;;;;;6278098;22;20066;-81
2023/03/17 06:26:05;;;;;;;6.88;4.28;;;7.00;99.90;;;;;;6250711;22;20019;-81
2023/03/17 06:28:31;;;;;;;7.95;4.50;;;7.00;99.90;;;;;;6250652;22;20095;-81
2023/03/17 06:30:57;;;;;;;6.70;4.38;;;7.00;99.90;;;;;;6250874;22;20066;-81
2023/03/17 06:33:24;;;;;;;8.23;4.70;;;7.00;99.90;;;;;;6250753;22;20018;-81
2023/03/17 06:35:50;;;;;;;10.55;4.78;;;7.10;99.90;;;;;;6250776;22;20030;-81
2023/03/17 06:38:16;;;;;;;7.82;4.45;;;7.00;99.90;;;;;;6250293;22;20099;-81
2023/03/17 06:40:42;;;;;;;6.78;4.38;;;7.10;99.90;;;;;;6250484;22;20043;-81
2023/03/17 06:43:08;;;;;;;8.13;4.68;;;7.20;99.90;;;;;;6250638;22;20343;-81
2023/03/17 06:45:34;;;;;;;7.53;4.32;;;7.20;99.90;;;;;;6250536;22;20015;-81
2023/03/17 06:48:01;;;;;;;7.68;4.35;;;7.30;99.90;;;;;;6250628;22;20094;-81
2023/03/17 06:50:26;;;;;;;7.25;4.25;;;7.30;99.90;;;;;;6250525;22;20023;-80
2023/03/17 06:52:52;;;;;;;7.47;4.13;;;7.30;99.90;;;;;;6250545;22;20016;-81
2023/03/17 06:55:18;;;;;;;7.00;4.32;;;7.30;99.90;;;;;;6250407;22;20015;-81
2023/03/17 06:57:43;;;;;;;6.75;3.85;;;7.30;99.90;;;;;;6250528;22;20459;-81
2023/03/17 07:00:12;;;;;;;8.40;4.43;;;7.40;99.90;;;;;;6250199;22;20444;-81
2023/03/17 07:02:39;;;;;;;5.88;3.67;;;7.40;99.90;;;;;;6277847;22;20019;-81
2023/03/17 07:05:05;;;;;;;6.82;3.88;;;7.40;99.90;;;;;;6250365;22;20018;-81
2023/03/17 07:07:31;;;;;;;6.85;4.43;;;7.40;99.90;;;;;;6250490;22;20062;-81
2023/03/17 07:09:57;;;;;;;8.48;4.57;;;7.60;99.90;;;;;;6277341;22;20340;-81
2023/03/17 07:12:22;;;;;;;6.75;4.05;;;7.60;99.90;;;;;;6277321;22;20011;-81
2023/03/17 07:14:49;;;;;;;9.63;3.92;;;7.70;99.90;;;;;;6250350;22;20031;-81
2023/03/17 07:17:14;;;;;;;10.10;4.43;;;7.80;99.90;;;;;;6250708;22;20022;-82
2023/03/17 07:19:41;;;;;;;7.63;4.38;;;7.90;99.90;;;;;;6277690;22;20090;-81
2023/03/17 07:22:08;;;;;;;8.45;4.82;;;8.00;99.90;;;;;;6250162;22;20023;-81
2023/03/17 07:24:33;;;;;;;7.10;4.82;;;8.20;99.90;;;;;;6277328;22;20031;-81
2023/03/17 07:26:59;;;;;;;7.47;4.47;;;8.30;99.90;;;;;;6277633;22;20004;-82
2023/03/17 07:29:26;;;;;;;8.20;4.60;;;8.40;99.90;;;;;;6277177;22;20087;-82
2023/03/17 07:31:52;;;;;;;8.30;4.63;;;8.40;99.90;;;;;;6250086;22;20451;-80
2023/03/17 07:34:18;;;;;;;7.65;4.88;;;8.30;99.90;;;;;;6277095;22;20348;-81
2023/03/17 07:36:44;;;;;;;8.15;4.35;;;8.20;99.90;;;;;;6249978;22;20012;-81
2023/03/17 07:39:10;;;;;;;6.20;3.83;;;8.20;99.90;;;;;;6250114;22;20016;-81
2023/03/17 07:41:35;;;;;;;7.35;4.50;;;8.30;99.90;;;;;;6249913;22;20087;-82
2023/03/17 07:44:02;;;;;;;7.97;3.90;;;8.20;99.90;;;;;;6250111;22;20015;-81
2023/03/17 07:46:28;;;;;;;9.18;4.50;;;8.30;99.90;;;;;;6249852;22;20405;-82
2023/03/17 07:48:54;;;;;;;8.35;4.47;;;8.30;99.90;;;;;;6249966;22;20019;-82
2023/03/17 07:51:21;;;;;;;5.60;4.07;;;8.30;99.90;;;;;;6249013;22;20012;-82
2023/03/17 07:53:51;;;;;;;7.55;4.68;;;8.40;99.90;;;;;;6277119;22;20034;-81
2023/03/17 07:56:16;;;;;;;7.68;4.25;;;8.40;99.90;;;;;;6249723;22;20331;-81
2023/03/17 07:58:42;;;;;;;5.78;4.03;;;8.50;99.90;;;;;;6250056;22;20490;-81
2023/03/17 08:01:14;;;;;;;7.90;5.00;;;8.40;99.90;;;;;;6249315;22;20024;-81
2023/03/17 08:03:39;;;;;;;7.05;4.15;;;8.50;99.90;;;;;;6249671;22;20019;-81
2023/03/17 08:06:05;;;;;;;7.72;4.93;;;8.60;99.90;;;;;;6249638;22;20094;-81
2023/03/17 08:08:31;;;;;;;7.13;3.97;;;8.80;99.90;;;;;;6249593;22;20019;-81
2023/03/17 08:11:02;;;;;;;7.82;4.03;;;8.90;99.90;;;;;;6249561;22;20008;-81
2023/03/17 08:13:28;;;;;;;6.22;4.30;;;9.00;99.90;;;;;;6249611;22;20020;-79
2023/03/17 08:15:54;;;;;;;6.50;4.18;;;9.00;99.90;;;;;;6276420;22;20432;-85
2023/03/17 08:18:20;;;;;;;8.05;4.40;;;8.90;99.90;;;;;;6249604;22;20061;-83
2023/03/17 08:20:46;;;;;;;6.45;4.15;;;9.00;99.90;;;;;;6276908;22;20016;-87
2023/03/17 08:23:11;;;;;;;7.32;4.68;;;8.90;99.90;;;;;;6249649;22;20023;-88
2023/03/17 08:25:37;;;;;;;5.82;4.15;;;9.00;99.90;;;;;;6249586;22;20015;-84
2023/03/17 08:28:03;;;;;;;6.32;4.00;;;9.00;99.90;;;;;;6249335;22;20023;-86
2023/03/17 08:30:29;;;;;;;6.13;4.28;;;9.00;99.90;;;;;;6249548;22;20024;-86
2023/03/17 08:32:55;;;;;;;6.50;4.22;;;9.00;99.90;;;;;;6249542;22;20347;-86
2023/03/17 08:35:21;;;;;;;8.18;4.43;;;9.00;99.90;;;;;;6249309;22;20011;-88
2023/03/17 08:37:47;;;;;;;8.57;4.28;;;9.00;99.90;;;;;;6249412;22;20435;-88
2023/03/17 08:40:18;;;;;;;7.78;4.10;;;9.10;99.90;;;;;;6249511;22;20011;-88
2023/03/17 08:42:46;;;;;;;9.00;4.72;;;9.10;99.90;;;;;;6249391;22;20041;-88
2023/03/17 08:45:13;;;;;;;8.10;4.35;;;9.10;99.90;;;;;;6249357;22;20019;-85
2023/03/17 08:47:39;;;;;;;7.72;4.57;;;9.20;99.90;;;;;;6276791;22;20011;-84
2023/03/17 08:50:14;;;;;;;8.70;4.88;;;9.30;99.90;;;;;;6276846;22;20313;-85
2023/03/17 08:52:40;;;;;;;6.43;3.90;;;9.40;99.90;;;;;;6276982;22;20035;-85
2023/03/17 08:55:07;;;;;;;7.10;4.57;;;9.50;99.90;;;;;;6249702;22;20424;-85
2023/03/17 08:57:34;;;;;;;8.75;3.90;;;9.60;99.90;;;;;;6276721;22;20019;-84
2023/03/17 09:00:00;;;;;;;6.97;4.05;;;9.80;99.90;;;;;;6249166;22;20011;-85
2023/03/17 09:02:28;;;;;;;6.82;3.97;;;10.00;99.90;;;;;;6249451;22;20027;-85
2023/03/17 09:04:53;;;;;;;6.75;4.32;;;10.00;99.90;;;;;;6249573;22;20047;-85
2023/03/17 09:07:20;;;;;;;7.05;4.50;;;10.20;99.90;;;;;;6276926;22;20016;-87
2023/03/17 09:09:46;;;;;;;7.72;4.75;;;10.20;99.90;;;;;;6249255;22;20051;-86
2023/03/17 09:12:13;;;;;;;9.68;4.60;;;10.40;99.90;;;;;;6276487;22;20047;-85
2023/03/17 09:14:39;;;;;;;20.73;4.82;;;10.40;99.90;;;;;;6276164;22;20024;-84
2023/03/17 09:17:07;;;;;;;7.78;4.72;;;10.50;99.90;;;;;;6276460;22;20436;-85
2023/03/17 09:19:32;;;;;;;8.05;4.30;;;10.50;99.90;;;;;;6276759;22;20018;-85
2023/03/17 09:21:59;;;;;;;10.20;4.65;;;10.60;99.90;;;;;;6249651;22;20023;-85
2023/03/17 09:24:25;;;;;;;11.35;5.00;;;10.60;99.90;;;;;;6249296;22;20050;-86
2023/03/17 09:26:50;;;;;;;7.88;4.88;;;10.60;99.90;;;;;;6249227;22;20019;-85
2023/03/17 09:29:16;;;;;;;8.32;4.18;;;10.60;99.90;;;;;;6278267;22;20042;-84
2023/03/17 09:31:41;;;;;;;7.93;4.57;;;10.60;99.90;;;;;;6251052;22;20021;-85
2023/03/17 09:34:07;;;;;;;6.63;4.38;;;10.70;99.90;;;;;;6251007;22;20047;-85
2023/03/17 09:36:33;;;;;;;14.65;4.70;;;10.70;99.90;;;;;;6278488;22;20023;-84
2023/03/17 09:38:59;;;;;;;7.03;4.53;;;10.80;99.90;;;;;;6250957;22;20396;-85
2023/03/17 09:41:42;;;;;;;9.57;4.72;;;10.90;99.90;;;;;;6278318;22;20042;-87
2023/03/17 09:44:08;;;;;;;8.43;4.45;;;11.10;99.90;;;;;;6277944;22;20388;-83
2023/03/17 09:47:07;;;;;;;9.85;5.03;;;11.20;99.90;;;;;;6250775;22;20026;-84
2023/03/17 09:49:50;;;;;;;8.43;5.57;;;11.50;99.90;;;;;;6278422;22;20015;-81
2023/03/17 09:52:17;;;;;;;;;;;11.80;99.90;;;;;;6251861;22;20026;-84
2023/03/17 09:54:48;;;;;;;10.43;5.72;;;11.90;99.90;;;;;;6250957;22;19922;-85
2023/03/17 09:57:28;;;;;;;12.35;5.90;;;12.00;99.90;;;;;;6251036;22;20051;-81
2023/03/17 10:00:25;;;;;;;10.77;6.03;;;12.00;99.90;;;;;;6250681;22;20400;-88
2023/03/17 10:02:51;;;;;;;9.48;6.13;;;12.00;99.90;;;;;;6250711;22;20443;-85
2023/03/17 10:05:24;;;;;;;9.10;6.05;;;12.30;99.90;;;;;;6250867;22;20443;-84
2023/03/17 10:08:09;;;;;;;;;;;12.50;99.90;;;;;;6251258;22;20058;-86
2023/03/17 10:11:01;;;;;;;11.52;5.97;;;12.70;99.90;;;;;;6250796;22;19915;-84
2023/03/17 10:13:46;;;;;;;10.68;6.82;;;12.90;99.90;;;;;;6251197;22;20023;-86
2023/03/17 10:16:17;;;;;;;9.90;6.65;;;13.00;99.90;;;;;;6250826;22;20335;-82
2023/03/17 10:19:07;;;;;;;11.32;6.70;;;13.00;99.90;;;;;;6277828;22;20026;-84
2023/03/17 10:21:42;;;;;;;12.35;7.05;;;13.00;99.90;;;;;;6250476;22;20015;-84
2023/03/17 10:24:10;;;;;;;11.48;6.38;;;13.10;99.90;;;;;;6250721;22;20094;-85
2023/03/17 10:26:43;;;;;;;11.93;6.88;;;13.30;99.90;;;;;;6249817;22;20050;-82
2023/03/17 10:29:22;;;;;;;10.23;6.55;;;13.50;99.90;;;;;;6249527;22;20383;-82
2023/03/17 10:31:53;;;;;;;11.82;6.72;;;13.80;99.90;;;;;;6249350;22;20015;-81
2023/03/17 10:34:26;;;;;;;12.40;7.15;;;14.10;99.90;;;;;;6277451;22;20603;-80
2023/03/17 10:37:06;;;;;;;10.25;6.80;;;14.20;99.90;;;;;;6219567;22;20024;-78
2023/03/17 10:42:11;;;;;;;11.15;6.38;;;14.70;99.90;;;;;;6272848;22;20024;-81
2023/03/17 10:44:47;;;;;;;9.45;5.93;;;14.80;99.90;;;;;;6249308;22;20417;-82
2023/03/17 10:47:28;;;;;;;10.25;6.40;;;14.90;99.90;;;;;;6277501;22;20047;-79
2023/03/17 10:49:56;;;;;;;9.32;6.65;;;15.10;99.90;;;;;;6277265;22;20438;-84
2023/03/17 10:52:26;;;;;;;8.90;6.30;;;15.20;99.90;;;;;;6250347;22;20343;-80
2023/03/17 10:54:54;;;;;;;11.18;6.57;;;15.20;99.90;;;;;;6277687;22;20039;-82
2023/03/17 10:57:20;;;;;;;10.48;5.70;;;15.20;99.90;;;;;;6277217;22;20016;-82
2023/03/17 10:59:54;;;;;;;9.02;5.57;;;15.40;99.90;;;;;;6249968;22;20124;-80
2023/03/17 11:02:28;;;;;;;8.63;6.05;;;15.40;99.90;;;;;;6277326;22;20020;-80
2023/03/17 11:05:04;;;;;;;10.10;6.03;;;15.50;99.90;;;;;;6277009;22;20019;-80
2023/03/17 11:07:38;;;;;;;11.25;5.45;;;15.60;99.90;;;;;;6277544;22;20086;-79
2023/03/17 11:10:18;;;;;;;9.93;6.35;;;15.60;99.90;;;;;;6277184;22;20023;-79
2023/03/17 11:12:45;;;;;;;10.95;5.38;;;15.70;99.90;;;;;;6250055;22;20027;-79
2023/03/17 11:15:16;;;;;;;13.18;5.93;;;15.70;99.90;;;;;;6276980;22;20528;-79
2023/03/17 11:18:00;;;;;;;8.55;5.72;;;15.80;99.90;;;;;;6250086;22;20016;-82
2023/03/17 11:20:47;;;;;;;9.15;5.75;;;15.80;99.90;;;;;;6249569;22;20026;-82
2023/03/17 11:23:32;;;;;;;10.38;6.07;;;15.80;99.90;;;;;;6249578;22;20062;-83
2023/03/17 11:26:16;;;;;;;8.27;5.97;;;15.90;99.90;;;;;;6276937;22;20030;-83
2023/03/17 11:28:48;;;;;;;9.45;6.25;;;16.00;99.90;;;;;;6277337;22;20011;-84
2023/03/17 11:31:14;;;;;;;7.90;5.93;;;16.00;99.90;;;;;;6249711;22;20019;-83
2023/03/17 11:34:12;;;;;;;10.48;6.70;;;16.10;99.90;;;;;;6249902;22;20343;-84
2023/03/17 11:36:38;;;;;;;9.93;6.22;;;16.10;99.90;;;;;;6250152;22;20447;-80
2023/03/17 11:39:19;;;;;;;10.13;6.28;;;16.20;99.90;;;;;;6277260;22;20090;-82
2023/03/17 11:42:05;;;;;;;9.77;6.30;;;16.20;99.90;;;;;;6249169;22;20023;-81
2023/03/17 11:45:09;;;;;;;8.20;6.28;;;16.30;99.90;;;;;;6276863;22;20324;-82
2023/03/17 11:47:41;;;;;;;11.05;6.20;;;16.20;99.90;;;;;;6277131;22;20073;-82
2023/03/17 11:50:20;;;;;;;11.98;6.80;;;16.30;99.90;;;;;;6249458;22;20019;-82
2023/03/17 11:53:08;;;;;;;11.85;7.15;;;16.40;99.90;;;;;;6276693;22;20020;-82
2023/03/17 11:56:01;;;;;;;8.95;6.80;;;16.50;99.90;;;;;;6277204;22;20019;-82
2023/03/17 11:58:42;;;;;;;9.02;6.57;;;16.60;99.90;;;;;;6261096;22;20030;-82
2023/03/17 12:01:14;;;;;;;10.93;6.97;;;16.70;99.90;;;;;;6276775;22;20019;-82
2023/03/17 12:03:47;;;;;;;11.90;6.77;;;16.80;99.90;;;;;;6250011;22;20046;-81
2023/03/17 12:06:23;;;;;;;10.45;6.55;;;16.90;99.90;;;;;;6249487;22;20019;-81
2023/03/17 12:09:26;;;;;;;10.23;6.82;;;16.80;99.90;;;;;;6250245;22;20023;-81
2023/03/17 12:11:54;;;;;;;12.30;7.57;;;16.70;99.90;;;;;;6249547;22;20047;-82
2023/03/17 12:14:25;;;;;;;10.65;7.55;;;16.80;99.90;;;;;;6276784;22;20019;-82
2023/03/17 12:17:11;;;;;;;11.35;7.13;;;16.80;99.90;;;;;;6276609;22;20031;-81
2023/03/17 12:19:56;;;;;;;12.07;7.00;;;16.90;99.90;;;;;;6276937;22;20069;-82
2023/03/17 12:22:29;;;;;;;10.82;7.53;;;16.90;99.90;;;;;;6276776;22;20070;-82
2023/03/17 12:25:23;;;;;;;10.20;6.65;;;17.00;99.90;;;;;;6276459;22;20586;-82
2023/03/17 12:28:07;;;;;;;12.15;7.50;;;17.10;99.90;;;;;;6249301;22;20066;-81
2023/03/17 12:30:36;;;;;;;10.25;7.40;;;17.00;99.90;;;;;;6249522;22;20023;-83
2023/03/17 12:33:36;;;;;;;12.70;7.60;;;17.10;99.90;;;;;;6249459;22;20077;-83
2023/03/17 12:36:04;;;;;;;10.40;7.88;;;17.10;99.90;;;;;;6123402;22;20077;-82
2023/03/17 12:39:00;;;;;;;12.70;7.72;;;17.00;99.90;;;;;;6276528;22;20026;-82
2023/03/17 12:41:55;;;;;;;12.57;7.95;;;17.00;99.90;;;;;;6224526;22;20402;-79
2023/03/17 12:44:56;;;;;;;11.95;8.38;;;17.00;99.90;;;;;;6276724;22;20090;-80
2023/03/17 12:48:01;;;;;;;12.65;8.18;;;16.90;99.90;;;;;;6276637;22;20023;-79
2023/03/17 12:50:35;;;;;;;9.82;7.53;;;16.90;99.90;;;;;;6128823;22;20456;-80
2023/03/17 12:53:32;;;;;;;9.52;7.85;;;16.80;99.90;;;;;;6277085;22;20019;-82
2023/03/17 12:56:05;;;;;;;13.38;8.23;;;16.70;99.90;;;;;;6276384;22;20461;-82
2023/03/17 12:58:43;;;;;;;11.52;7.85;;;16.70;99.90;;;;;;6249649;22;20480;-82
2023/03/17 13:01:17;;;;;;;13.10;8.63;;;16.70;99.90;;;;;;6276784;22;20012;-82
2023/03/17 13:04:11;;;;;;;14.35;8.32;;;16.70;99.90;;;;;;6278758;22;20051;-81
2023/03/17 13:07:05;;;;;;;13.20;8.52;;;16.80;99.90;;;;;;6250922;22;20016;-81
2023/03/17 13:09:30;;;;;;;11.27;8.65;;;16.60;99.90;;;;;;6278264;22;20020;-81